Time;durP1;ratioP1;P1;durP2;ratioP2;P2;SDS_P1;SDS_P2;PMS_P1;PMS_P2;Temp;Humidity;BMP_temperature;BMP_pressure;BME280_temperature;BME280_humidity;BME280_pressure;Samples;Min_cycle;Max_cycle;Signal;HPM_P1;HPM_P2
2023/01/27 00:01:50;;;;;;;27.63;19.03;;;1.20;1.00;;;;;;5115324;28;20179;-37
2023/01/27 00:04:16;;;;;;;28.93;19.30;;;1.20;1.00;;;;;;5114375;28;20282;-36
2023/01/27 00:06:42;;;;;;;29.23;19.77;;;1.10;1.00;;;;;;5117180;28;20417;-37
2023/01/27 00:09:08;;;;;;;29.87;19.83;;;1.10;1.00;;;;;;5118756;28;20429;-37
2023/01/27 00:14:20;;;;;;;28.43;19.37;;;1.10;1.00;;;;;;5118917;28;20432;-36
2023/01/27 00:16:45;;;;;;;27.00;19.07;;;1.10;1.00;;;;;;5117674;28;20549;-37
2023/01/27 00:19:11;;;;;;;28.60;19.30;;;1.10;1.00;;;;;;5118942;28;20179;-38
2023/01/27 00:24:35;;;;;;;25.70;19.43;;;1.10;1.00;;;;;;5116781;28;20371;-36
2023/01/27 00:27:03;;;;;;;25.20;19.67;;;1.10;1.00;;;;;;5118250;28;20528;-36
2023/01/27 00:29:28;;;;;;;24.90;18.17;;;1.10;1.00;;;;;;5118631;28;20456;-37
2023/01/27 00:34:40;;;;;;;29.40;19.10;;;1.10;1.00;;;;;;5117601;28;20178;-37
2023/01/27 00:37:05;;;;;;;27.03;20.47;;;1.10;1.00;;;;;;5120320;28;20425;-37
2023/01/27 00:39:31;;;;;;;27.57;19.90;;;1.10;1.00;;;;;;5119033;28;20429;-36
2023/01/27 00:41:57;;;;;;;25.80;19.30;;;1.10;1.00;;;;;;5120709;28;20180;-36
2023/01/27 00:44:22;;;;;;;27.53;20.63;;;1.10;1.00;;;;;;5119465;28;20179;-37
2023/01/27 00:46:48;;;;;;;27.60;18.83;;;1.10;1.00;;;;;;5120198;28;20426;-36
2023/01/27 00:49:14;;;;;;;26.03;19.07;;;1.10;1.00;;;;;;5118768;28;20199;-37
2023/01/27 00:51:40;;;;;;;27.80;19.77;;;1.10;1.00;;;;;;5119233;28;20445;-37
2023/01/27 00:54:06;;;;;;;26.50;18.30;;;1.10;1.00;;;;;;5118189;28;20176;-36
2023/01/27 00:56:32;;;;;;;25.00;19.13;;;1.20;1.00;;;;;;5099608;28;20873;-36
2023/01/27 00:58:58;;;;;;;27.23;19.10;;;1.20;1.00;;;;;;5117367;28;20172;-37
2023/01/27 01:01:23;;;;;;;29.17;20.20;;;1.20;1.00;;;;;;5117885;28;20425;-36
2023/01/27 01:03:49;;;;;;;26.90;19.13;;;1.20;1.00;;;;;;5118707;28;20187;-37
2023/01/27 01:06:16;;;;;;;31.30;18.80;;;1.20;1.00;;;;;;5118370;28;20276;-37
2023/01/27 01:08:42;;;;;;;24.33;19.03;;;1.20;1.00;;;;;;5119546;28;20433;-36
2023/01/27 01:11:12;;;;;;;27.90;19.83;;;1.20;1.00;;;;;;5119553;27;20513;-37
2023/01/27 01:13:37;;;;;;;25.90;18.23;;;1.20;1.00;;;;;;5118828;28;20477;-37
2023/01/27 01:16:05;;;;;;;30.27;21.27;;;1.20;1.00;;;;;;5118838;28;20505;-39
2023/01/27 01:18:31;;;;;;;30.57;20.20;;;1.20;1.00;;;;;;5118985;28;20183;-36
2023/01/27 01:20:56;;;;;;;26.47;20.30;;;1.20;1.00;;;;;;5119134;28;20500;-37
2023/01/27 01:23:22;;;;;;;28.77;20.43;;;1.20;1.00;;;;;;5119490;28;20527;-35
2023/01/27 01:25:55;;;;;;;33.57;20.60;;;1.20;1.00;;;;;;5119613;28;20565;-37
2023/01/27 01:28:21;;;;;;;30.50;20.47;;;1.20;1.00;;;;;;5118384;28;20194;-37
2023/01/27 01:30:47;;;;;;;31.33;21.20;;;1.20;1.00;;;;;;5119814;28;20483;-38
2023/01/27 01:33:13;;;;;;;26.37;19.70;;;1.20;1.00;;;;;;5119302;28;20465;-37
2023/01/27 01:35:38;;;;;;;36.30;24.20;;;1.20;1.00;;;;;;5119891;28;20442;-37
2023/01/27 01:38:04;;;;;;;30.33;21.67;;;1.20;1.00;;;;;;5119531;28;20321;-42
2023/01/27 01:40:30;;;;;;;33.40;22.90;;;1.10;1.00;;;;;;5119199;28;20172;-37
2023/01/27 01:42:58;;;;;;;32.20;22.80;;;1.10;1.00;;;;;;5119390;28;20180;-37
2023/01/27 01:45:32;;;;;;;17.90;10.60;;;1.20;1.00;;;;;;5116992;28;20168;-37
2023/01/27 01:48:41;;;;;;;30.63;14.60;;;3.20;1.00;;;;;;5118333;28;20462;-37
2023/01/27 01:51:13;;;;;;;27.83;17.87;;;4.40;1.00;;;;;;5099248;28;20514;-36
2023/01/27 01:54:08;;;;;;;27.90;18.00;;;5.30;1.00;;;;;;5119534;28;20883;-36
2023/01/27 01:56:38;;;;;;;32.57;22.80;;;5.60;1.00;;;;;;5104664;28;20430;-37
2023/01/27 01:59:16;;;;;;;35.30;25.20;;;5.30;1.00;;;;;;5115439;28;20428;-37
2023/01/27 02:01:42;;;;;;;33.00;24.63;;;4.90;1.00;;;;;;5114783;28;20445;-35
2023/01/27 02:04:18;;;;;;;33.87;24.37;;;4.50;1.00;;;;;;5115557;28;20453;-36
2023/01/27 02:06:53;;;;;;;30.57;23.53;;;4.00;99.90;;;;;;5116870;28;20430;-37
2023/01/27 02:09:19;;;;;;;31.60;22.20;;;3.60;81.70;;;;;;5116694;28;20433;-36
2023/01/27 02:11:45;;;;;;;30.00;22.30;;;3.30;99.90;;;;;;5116131;28;20453;-36
2023/01/27 02:14:12;;;;;;;28.00;20.83;;;3.10;99.90;;;;;;5117908;28;20524;-36
2023/01/27 02:16:39;;;;;;;25.70;20.20;;;2.80;99.90;;;;;;5119806;28;20616;-37
2023/01/27 02:19:05;;;;;;;27.17;19.40;;;2.60;1.00;;;;;;5120259;28;20498;-36
2023/01/27 02:21:30;;;;;;;29.33;20.70;;;2.50;99.90;;;;;;5120781;28;20413;-36
2023/01/27 02:23:59;;;;;;;28.43;20.50;;;2.30;99.90;;;;;;5119597;28;20277;-36
2023/01/27 02:26:25;;;;;;;27.93;21.10;;;2.20;99.90;;;;;;5118422;28;20267;-36
2023/01/27 02:28:54;;;;;;;28.57;20.90;;;2.10;1.00;;;;;;5118323;28;20449;-36
2023/01/27 02:31:19;;;;;;;26.03;19.33;;;2.10;1.00;;;;;;5117812;28;20229;-37
2023/01/27 02:33:45;;;;;;;30.53;19.57;;;2.00;1.00;;;;;;5116104;28;20715;-37
2023/01/27 02:36:15;;;;;;;27.57;19.50;;;1.90;1.00;;;;;;5116400;28;20648;-36
2023/01/27 02:38:52;;;;;;;26.80;19.80;;;1.90;1.00;;;;;;5117056;28;20175;-36
2023/01/27 02:41:27;;;;;;;25.87;18.30;;;1.80;1.00;;;;;;5116028;28;20446;-37
2023/01/27 02:43:52;;;;;;;25.40;18.27;;;1.80;1.00;;;;;;5116698;28;20432;-37
2023/01/27 02:46:18;;;;;;;26.13;18.40;;;1.70;1.00;;;;;;5117924;28;20417;-36
2023/01/27 02:48:43;;;;;;;32.53;21.77;;;1.70;1.00;;;;;;5117993;28;20518;-36
2023/01/27 02:51:10;;;;;;;27.73;20.73;;;1.70;1.00;;;;;;5117627;28;20259;-37
2023/01/27 02:53:35;;;;;;;30.83;20.93;;;1.70;99.90;;;;;;5117139;28;20301;-37
2023/01/27 02:56:01;;;;;;;27.00;20.20;;;1.70;99.90;;;;;;5116477;28;20514;-36
2023/01/27 02:58:27;;;;;;;27.10;19.77;;;1.60;99.90;;;;;;5114979;28;20587;-36
2023/01/27 03:00:52;;;;;;;26.40;18.63;;;1.60;99.90;;;;;;5115259;28;20349;-36
2023/01/27 03:03:18;;;;;;;31.43;20.00;;;1.60;99.90;;;;;;5115050;28;20214;-37
2023/01/27 03:05:44;;;;;;;25.60;19.70;;;1.50;99.90;;;;;;5114406;28;20183;-37
2023/01/27 03:08:10;;;;;;;30.30;19.90;;;1.50;99.90;;;;;;5114833;28;20263;-36
2023/01/27 03:10:36;;;;;;;31.40;20.93;;;1.50;99.90;;;;;;5113842;28;20692;-36
2023/01/27 03:13:02;;;;;;;32.07;21.33;;;1.50;99.90;;;;;;5115048;28;20373;-35
2023/01/27 03:18:12;;;;;;;27.60;19.80;;;1.50;99.90;;;;;;5117172;28;20505;-37
2023/01/27 03:20:45;;;;;;;26.97;19.10;;;1.50;99.90;;;;;;5115960;28;20484;-36
2023/01/27 03:23:11;;;;;;;28.50;18.90;;;1.50;99.90;;;;;;5115739;28;20247;-38
2023/01/27 03:25:41;;;;;;;31.20;20.90;;;1.50;99.90;;;;;;5115562;28;20441;-37
2023/01/27 03:28:07;;;;;;;31.10;20.90;;;1.50;99.90;;;;;;5116149;28;20420;-37
2023/01/27 03:30:33;;;;;;;34.90;20.47;;;1.50;99.90;;;;;;5116723;28;20497;-37
2023/01/27 03:32:59;;;;;;;27.30;19.43;;;1.50;99.90;;;;;;5115982;28;20619;-37
2023/01/27 03:35:33;;;;;;;27.70;20.70;;;1.50;99.90;;;;;;5116919;28;20413;-37
2023/01/27 03:46:18;;;;;;;24.70;18.10;;;1.40;68.00;;;;;;5120561;28;20497;-37
2023/01/27 03:48:49;;;;;;;24.47;17.73;;;1.40;58.40;;;;;;5120343;28;20421;-36
2023/01/27 03:51:15;;;;;;;26.67;18.70;;;1.40;78.90;;;;;;5120991;28;20425;-37
2023/01/27 03:53:40;;;;;;;26.30;18.60;;;1.40;99.90;;;;;;5120544;28;20529;-36
2023/01/27 03:56:06;;;;;;;26.87;18.27;;;1.40;99.90;;;;;;5120584;28;20422;-36
2023/01/27 03:58:34;;;;;;;28.93;19.60;;;1.40;99.90;;;;;;5119514;28;20816;-36
2023/01/27 04:01:22;;;;;;;27.50;18.37;;;1.40;99.90;;;;;;5118790;28;20494;-37
2023/01/27 04:09:22;;;;;;;29.67;19.17;;;1.40;75.80;;;;;;5119017;28;20427;-38
2023/01/27 04:11:54;;;;;;;26.70;20.13;;;1.40;40.80;;;;;;5121641;28;20433;-36
2023/01/27 04:14:25;;;;;;;22.60;17.03;;;1.40;21.30;;;;;;5120936;28;20430;-36
2023/01/27 04:16:52;;;;;;;25.67;18.60;;;1.40;49.00;;;;;;5121022;28;20495;-37
2023/01/27 04:19:18;;;;;;;24.03;17.20;;;1.40;40.50;;;;;;5122943;28;20433;-37
2023/01/27 04:21:45;;;;;;;26.97;17.27;;;1.40;1.00;;;;;;5124732;28;20819;-37
2023/01/27 04:24:32;;;;;;;26.33;19.00;;;1.40;1.00;;;;;;5122739;28;20461;-37
2023/01/27 04:27:00;;;;;;;24.40;16.67;;;1.40;1.00;;;;;;5121126;28;20656;-36
2023/01/27 04:29:29;;;;;;;25.57;16.87;;;1.40;1.00;;;;;;5101641;28;20507;-37
2023/01/27 04:31:56;;;;;;;24.77;17.10;;;1.40;1.00;;;;;;5120058;28;20464;-37
2023/01/27 04:34:22;;;;;;;22.40;15.73;;;1.40;1.00;;;;;;5120846;28;20414;-36
2023/01/27 04:36:48;;;;;;;21.03;15.30;;;1.40;1.00;;;;;;5119198;28;20512;-36
2023/01/27 04:39:14;;;;;;;21.10;14.70;;;1.40;1.00;;;;;;5119306;28;20441;-37
2023/01/27 04:41:40;;;;;;;19.00;15.17;;;1.40;99.90;;;;;;5119927;28;20238;-37
2023/01/27 04:44:06;;;;;;;22.90;15.37;;;1.40;99.90;;;;;;5119236;28;20454;-37
2023/01/27 04:46:32;;;;;;;21.67;15.60;;;1.40;99.90;;;;;;5119151;28;20176;-37
2023/01/27 04:48:59;;;;;;;20.20;14.50;;;1.40;99.90;;;;;;5118260;28;20441;-37
2023/01/27 04:51:24;;;;;;;21.03;14.20;;;1.40;99.90;;;;;;5119222;28;20417;-37
2023/01/27 04:53:50;;;;;;;18.00;14.43;;;1.30;99.90;;;;;;5119301;28;20751;-37
2023/01/27 04:56:30;;;;;;;22.73;19.33;;;1.30;99.90;;;;;;5119552;28;20184;-37
2023/01/27 04:59:00;;;;;;;22.00;19.53;;;1.30;99.90;;;;;;5119135;28;20171;-37
2023/01/27 05:01:26;;;;;;;23.03;20.00;;;1.30;99.90;;;;;;5118428;28;20541;-36
2023/01/27 05:03:52;;;;;;;21.47;19.00;;;1.30;99.90;;;;;;5118034;28;20830;-37
2023/01/27 05:06:18;;;;;;;23.23;17.63;;;1.30;93.80;;;;;;5117060;28;20496;-37
2023/01/27 05:08:43;;;;;;;16.57;13.90;;;1.30;25.80;;;;;;5117814;28;20413;-37
2023/01/27 05:11:10;;;;;;;14.60;12.97;;;1.30;1.00;;;;;;5116738;28;20561;-37
2023/01/27 05:13:36;;;;;;;16.50;13.63;;;1.20;1.00;;;;;;5117526;28;21062;-37
2023/01/27 05:16:08;;;;;;;16.63;12.87;;;1.20;1.00;;;;;;5117589;28;20517;-36
2023/01/27 05:18:35;;;;;;;15.80;12.73;;;1.20;1.00;;;;;;5117771;28;20160;-37
2023/01/27 05:21:01;;;;;;;15.80;13.07;;;1.20;1.00;;;;;;5118057;28;20474;-37
2023/01/27 05:23:36;;;;;;;16.73;13.47;;;1.20;1.00;;;;;;5119620;28;20496;-37
2023/01/27 05:26:06;;;;;;;17.17;13.03;;;1.20;1.00;;;;;;5119619;27;20410;-37
2023/01/27 05:28:33;;;;;;;16.77;12.20;;;1.20;1.00;;;;;;5118568;28;20440;-36
2023/01/27 05:31:03;;;;;;;16.50;12.93;;;1.20;1.00;;;;;;5119168;28;20432;-37
2023/01/27 05:33:28;;;;;;;16.10;12.70;;;1.20;1.00;;;;;;5116911;28;20581;-37
2023/01/27 05:35:57;;;;;;;16.30;13.27;;;1.20;1.00;;;;;;5118514;28;20430;-36
2023/01/27 05:38:23;;;;;;;16.50;13.07;;;1.20;1.00;;;;;;5117549;28;20434;-37
2023/01/27 05:40:49;;;;;;;17.60;13.07;;;1.20;1.00;;;;;;5116712;28;20405;-36
2023/01/27 05:43:14;;;;;;;18.40;13.60;;;1.20;1.00;;;;;;5116572;28;20191;-37
2023/01/27 05:45:40;;;;;;;16.80;13.40;;;1.20;1.00;;;;;;5116304;28;20764;-36
2023/01/27 05:48:05;;;;;;;17.37;13.73;;;1.20;1.00;;;;;;5114727;28;20179;-42
2023/01/27 05:50:31;;;;;;;17.20;13.30;;;1.20;1.00;;;;;;5115063;28;20275;-37
2023/01/27 05:52:57;;;;;;;18.43;15.13;;;1.20;1.00;;;;;;5115395;28;20608;-36
2023/01/27 05:55:22;;;;;;;19.00;14.20;;;1.20;1.00;;;;;;5115840;28;20267;-37
2023/01/27 05:57:48;;;;;;;19.20;15.13;;;1.20;1.00;;;;;;5115945;28;20244;-37
2023/01/27 06:00:14;;;;;;;19.50;14.60;;;1.20;1.00;;;;;;5116072;28;20528;-37
2023/01/27 06:02:40;;;;;;;19.90;15.10;;;1.20;1.00;;;;;;5114101;28;20214;-35
2023/01/27 06:05:06;;;;;;;18.10;14.80;;;1.20;1.00;;;;;;5110814;28;20807;-36
2023/01/27 06:07:31;;;;;;;17.77;14.07;;;1.20;1.00;;;;;;5112916;28;20192;-36
2023/01/27 06:09:57;;;;;;;19.20;15.33;;;1.20;1.00;;;;;;5113175;28;20355;-36
2023/01/27 06:12:23;;;;;;;19.30;15.70;;;1.20;1.00;;;;;;5112896;28;20214;-37
2023/01/27 06:14:48;;;;;;;22.53;16.90;;;1.10;1.00;;;;;;5110670;28;20220;-37
2023/01/27 06:17:14;;;;;;;21.63;17.63;;;1.10;1.00;;;;;;5111846;28;20187;-37
2023/01/27 06:19:39;;;;;;;19.83;16.80;;;1.10;1.00;;;;;;5109334;28;20195;-37
2023/01/27 06:22:05;;;;;;;23.10;18.20;;;1.10;1.00;;;;;;5107694;28;20180;-38
2023/01/27 06:24:31;;;;;;;27.70;19.33;;;1.10;1.00;;;;;;5111641;28;20235;-37
2023/01/27 06:26:56;;;;;;;24.47;18.37;;;1.00;1.00;;;;;;5115149;28;20317;-37
2023/01/27 06:29:22;;;;;;;20.50;15.87;;;1.00;1.00;;;;;;5111718;28;20180;-37
2023/01/27 06:31:47;;;;;;;21.90;18.30;;;1.00;7.30;;;;;;5111078;28;20549;-37
2023/01/27 06:34:13;;;;;;;22.13;17.10;;;1.10;41.70;;;;;;5109555;28;20290;-37
2023/01/27 06:36:39;;;;;;;22.60;18.60;;;1.10;27.70;;;;;;5109642;28;20184;-38
2023/01/27 06:39:04;;;;;;;23.67;17.83;;;1.10;27.70;;;;;;5111828;28;20209;-37
2023/01/27 06:41:30;;;;;;;23.87;19.03;;;1.10;59.20;;;;;;5107616;28;20421;-37
2023/01/27 06:43:56;;;;;;;21.90;18.10;;;1.10;6.60;;;;;;5109999;28;20168;-38
2023/01/27 06:46:21;;;;;;;24.13;18.70;;;1.10;1.00;;;;;;5110659;28;20171;-37
2023/01/27 06:48:47;;;;;;;25.47;19.40;;;1.10;1.00;;;;;;5108705;28;20180;-37
2023/01/27 06:51:13;;;;;;;22.97;18.70;;;1.10;1.00;;;;;;5111452;28;20180;-37
2023/01/27 06:53:38;;;;;;;24.40;18.50;;;1.10;1.00;;;;;;5111446;28;20306;-36
2023/01/27 06:56:04;;;;;;;22.90;18.10;;;1.10;1.00;;;;;;5113578;28;20190;-37
2023/01/27 06:58:31;;;;;;;25.43;19.10;;;1.10;11.30;;;;;;5112492;28;20203;-37
2023/01/27 07:00:57;;;;;;;28.60;19.10;;;1.10;5.90;;;;;;5114520;28;20845;-37
2023/01/27 07:03:23;;;;;;;26.10;19.80;;;1.10;1.00;;;;;;5112595;28;20622;-39
2023/01/27 07:05:49;;;;;;;24.83;18.40;;;1.10;1.00;;;;;;5112767;28;20380;-37
2023/01/27 07:08:15;;;;;;;26.63;19.27;;;1.10;1.00;;;;;;5112842;28;20410;-37
2023/01/27 07:10:41;;;;;;;28.57;20.13;;;1.10;28.50;;;;;;5113013;28;20206;-37
2023/01/27 07:13:08;;;;;;;29.93;21.67;;;1.10;53.50;;;;;;5111433;28;20593;-37
2023/01/27 07:15:34;;;;;;;32.07;23.90;;;1.10;73.20;;;;;;5113990;28;20228;-37
2023/01/27 07:18:00;;;;;;;30.53;21.50;;;1.20;99.90;;;;;;5114874;28;20567;-37
2023/01/27 07:20:27;;;;;;;28.37;20.90;;;1.20;99.90;;;;;;5112841;28;20317;-37
2023/01/27 07:23:00;;;;;;;26.27;20.27;;;1.20;99.90;;;;;;5112293;28;20462;-37
2023/01/27 07:25:26;;;;;;;27.27;21.90;;;1.20;99.90;;;;;;5112349;28;20453;-38
2023/01/27 07:27:52;;;;;;;27.33;19.50;;;1.20;99.90;;;;;;5113550;28;20460;-36
2023/01/27 07:30:18;;;;;;;30.00;21.43;;;1.30;99.90;;;;;;5110794;28;20493;-37
2023/01/27 07:32:43;;;;;;;34.70;24.70;;;1.30;99.90;;;;;;5113143;28;20504;-38
2023/01/27 07:35:09;;;;;;;34.13;24.87;;;1.30;99.90;;;;;;5111721;28;20820;-37
2023/01/27 07:37:34;;;;;;;37.30;26.00;;;1.40;99.90;;;;;;5112348;28;20557;-37
2023/01/27 07:40:00;;;;;;;35.50;24.77;;;1.40;1.00;;;;;;5109785;28;20186;-37
2023/01/27 07:42:26;;;;;;;33.40;22.43;;;1.40;1.00;;;;;;5112324;28;20179;-37
2023/01/27 07:44:51;;;;;;;33.40;23.70;;;1.40;1.00;;;;;;5111589;28;20175;-38
2023/01/27 07:47:17;;;;;;;29.37;21.73;;;1.50;1.00;;;;;;5109554;28;20349;-37
2023/01/27 07:49:42;;;;;;;32.00;22.23;;;1.40;1.00;;;;;;5110219;28;20226;-37
2023/01/27 07:52:08;;;;;;;27.90;20.53;;;1.50;99.90;;;;;;5111213;28;20227;-38
2023/01/27 07:54:34;;;;;;;27.30;20.63;;;1.50;99.90;;;;;;5112409;28;20176;-37
2023/01/27 07:57:03;;;;;;;33.33;21.77;;;1.50;99.90;;;;;;5111612;28;20577;-36
2023/01/27 07:59:28;;;;;;;32.00;23.40;;;1.50;99.90;;;;;;5111604;28;20563;-37
2023/01/27 08:01:54;;;;;;;30.20;21.87;;;1.50;99.90;;;;;;5111847;28;20430;-36
2023/01/27 08:04:20;;;;;;;30.53;20.20;;;1.60;99.90;;;;;;5112146;28;20601;-38
2023/01/27 08:06:45;;;;;;;28.83;19.73;;;1.60;99.90;;;;;;5112099;28;20179;-36
2023/01/27 08:09:11;;;;;;;26.87;19.53;;;1.60;99.90;;;;;;5112201;28;20535;-37
2023/01/27 08:11:37;;;;;;;25.60;19.40;;;1.70;99.90;;;;;;5112687;28;20321;-37
2023/01/27 08:14:02;;;;;;;29.00;18.80;;;1.70;93.20;;;;;;5113539;28;20379;-37
2023/01/27 08:16:28;;;;;;;25.27;18.50;;;1.70;18.40;;;;;;5112600;28;20179;-38
2023/01/27 08:18:54;;;;;;;25.77;20.00;;;1.70;1.00;;;;;;5113361;28;20488;-37
2023/01/27 08:21:20;;;;;;;24.27;18.50;;;1.70;1.00;;;;;;5113827;28;20176;-37
2023/01/27 08:23:46;;;;;;;24.67;18.23;;;1.70;1.00;;;;;;5111858;28;20231;-37
2023/01/27 08:26:11;;;;;;;25.27;17.40;;;1.70;1.00;;;;;;5113881;28;20505;-38
2023/01/27 08:28:38;;;;;;;27.60;20.20;;;1.60;1.00;;;;;;5117109;28;20262;-36
2023/01/27 08:31:13;;;;;;;23.80;19.07;;;1.70;1.00;;;;;;5117985;28;20203;-37
2023/01/27 08:33:40;;;;;;;24.57;17.40;;;1.70;1.00;;;;;;5117231;28;20725;-37
2023/01/27 08:36:12;;;;;;;25.87;18.37;;;1.70;1.00;;;;;;5115576;28;20417;-37
2023/01/27 08:38:38;;;;;;;20.57;15.60;;;1.70;1.00;;;;;;5115450;28;20922;-37
2023/01/27 08:41:05;;;;;;;20.80;15.80;;;1.70;99.90;;;;;;5115637;28;20441;-37
2023/01/27 08:43:31;;;;;;;8.07;4.83;;;1.70;99.90;;;;;;5112281;28;20436;-38
2023/01/27 08:45:59;;;;;;;15.37;10.17;;;2.50;1.00;;;;;;5116184;28;20414;-39
2023/01/27 08:48:25;;;;;;;24.30;14.37;;;5.10;1.00;;;;;;5116943;28;20854;-40
2023/01/27 08:50:50;;;;;;;23.30;15.30;;;6.40;1.00;;;;;;5118045;28;20487;-37
2023/01/27 08:53:16;;;;;;;24.10;16.20;;;7.50;1.00;;;;;;5116792;28;20461;-37
2023/01/27 08:55:41;;;;;;;33.37;22.93;;;8.00;1.00;;;;;;5118026;28;20485;-38
2023/01/27 08:58:07;;;;;;;26.13;20.93;;;7.80;1.00;;;;;;5118622;28;20200;-37
2023/01/27 09:00:33;;;;;;;21.50;18.33;;;7.30;1.00;;;;;;5117792;28;20187;-38
2023/01/27 09:02:58;;;;;;;20.50;17.43;;;6.60;1.00;;;;;;5117000;28;20277;-37
2023/01/27 09:05:24;;;;;;;25.97;18.80;;;6.10;1.00;;;;;;5116935;28;20203;-38
2023/01/27 09:07:50;;;;;;;18.73;16.73;;;5.60;1.00;;;;;;5116925;28;20183;-38
2023/01/27 09:10:16;;;;;;;19.10;16.13;;;5.10;1.00;;;;;;5117733;28;20294;-38
2023/01/27 09:12:43;;;;;;;18.80;15.77;;;4.70;1.00;;;;;;5115826;28;20203;-37
2023/01/27 09:15:09;;;;;;;17.23;15.03;;;4.40;1.00;;;;;;5114109;28;20433;-37
2023/01/27 09:17:35;;;;;;;17.93;14.70;;;4.10;99.90;;;;;;5115889;28;20429;-38
2023/01/27 09:20:01;;;;;;;18.27;13.53;;;3.90;1.00;;;;;;5116267;28;20680;-37
2023/01/27 09:22:26;;;;;;;17.17;14.83;;;3.70;1.00;;;;;;5115901;28;20470;-37
2023/01/27 09:24:52;;;;;;;15.17;12.93;;;3.60;99.90;;;;;;5117015;28;20186;-37
2023/01/27 09:27:17;;;;;;;16.90;14.07;;;3.50;99.90;;;;;;5115988;28;20340;-38
2023/01/27 09:29:43;;;;;;;17.63;13.73;;;3.40;1.00;;;;;;5114784;28;20538;-37
2023/01/27 09:32:11;;;;;;;16.30;12.10;;;3.30;99.90;;;;;;5115831;28;20296;-37
2023/01/27 09:34:37;;;;;;;15.13;13.07;;;3.30;1.00;;;;;;5115213;28;20466;-36
2023/01/27 09:37:10;;;;;;;16.37;13.27;;;3.20;1.00;;;;;;5114946;28;20445;-37
2023/01/27 09:39:41;;;;;;;15.87;13.00;;;3.20;1.00;;;;;;5114149;28;20810;-37
2023/01/27 09:42:15;;;;;;;15.73;12.60;;;3.10;99.90;;;;;;5114045;27;20417;-37
2023/01/27 09:44:51;;;;;;;15.37;12.20;;;3.10;99.90;;;;;;5114351;28;20428;-37
2023/01/27 09:47:45;;;;;;;18.50;14.00;;;3.00;99.90;;;;;;5114808;28;20421;-38
2023/01/27 09:50:32;;;;;;;16.50;12.83;;;2.90;11.60;;;;;;5114775;28;20736;-37
2023/01/27 09:53:33;;;;;;;15.83;12.83;;;2.90;1.00;;;;;;5113403;28;20456;-37
2023/01/27 09:56:36;;;;;;;18.67;14.33;;;2.90;1.00;;;;;;5114759;28;20417;-36
2023/01/27 09:59:12;;;;;;;18.77;14.13;;;2.90;1.00;;;;;;5115148;28;20424;-36
2023/01/27 10:01:47;;;;;;;16.20;12.60;;;2.90;99.90;;;;;;5114572;27;20459;-37
2023/01/27 10:04:25;;;;;;;16.70;13.57;;;2.90;99.90;;;;;;5113663;28;20429;-37
2023/01/27 10:07:16;;;;;;;16.10;13.00;;;2.90;99.90;;;;;;5114539;28;20429;-37
2023/01/27 10:09:42;;;;;;;17.37;12.57;;;3.00;99.90;;;;;;5114798;28;20510;-37
2023/01/27 10:12:13;;;;;;;16.53;13.33;;;3.00;24.30;;;;;;5114576;28;20456;-37
2023/01/27 10:15:04;;;;;;;14.27;12.23;;;3.00;1.00;;;;;;5114401;28;20186;-37
2023/01/27 10:17:59;;;;;;;14.43;11.93;;;3.10;1.00;;;;;;5112694;28;20513;-37
2023/01/27 10:20:35;;;;;;;16.70;11.73;;;3.10;1.00;;;;;;5113429;28;20512;-36
2023/01/27 10:23:20;;;;;;;15.90;12.60;;;3.20;99.90;;;;;;5115822;28;20758;-36
2023/01/27 10:26:27;;;;;;;14.60;11.70;;;3.20;99.90;;;;;;5114915;28;20432;-36
2023/01/27 10:29:03;;;;;;;14.97;11.67;;;3.30;99.90;;;;;;5031855;28;20460;-37
2023/01/27 10:31:36;;;;;;;13.03;11.03;;;3.30;99.90;;;;;;4999150;28;20912;-37
2023/01/27 10:34:46;;;;;;;16.37;12.43;;;3.30;55.40;;;;;;5073382;28;20889;-37
2023/01/27 10:37:31;;;;;;;16.67;12.43;;;3.30;1.00;;;;;;5031585;28;20459;-37
2023/01/27 10:40:30;;;;;;;20.57;13.97;;;3.40;1.00;;;;;;5113435;28;20681;-36
2023/01/27 10:43:03;;;;;;;17.77;13.67;;;3.40;1.00;;;;;;5111264;28;20418;-38
2023/01/27 10:45:36;;;;;;;18.10;13.50;;;3.40;1.00;;;;;;5115001;28;20687;-37
2023/01/27 10:48:22;;;;;;;18.80;13.53;;;3.50;1.00;;;;;;5114841;28;20430;-37
2023/01/27 10:50:54;;;;;;;17.70;13.10;;;3.50;1.00;;;;;;5112601;28;20460;-37
2023/01/27 10:53:25;;;;;;;16.70;13.23;;;3.50;1.00;;;;;;5097077;28;20511;-37
2023/01/27 10:56:09;;;;;;;19.47;13.83;;;3.50;1.00;;;;;;5113787;28;20516;-37
2023/01/27 10:59:14;;;;;;;19.70;13.90;;;3.50;1.00;;;;;;5113325;28;20448;-36
2023/01/27 11:01:58;;;;;;;20.63;14.27;;;3.50;1.00;;;;;;5097799;28;20488;-38
2023/01/27 11:04:46;;;;;;;17.43;13.30;;;3.50;1.00;;;;;;5111620;28;20676;-37
2023/01/27 11:07:18;;;;;;;19.80;15.13;;;3.60;1.00;;;;;;5111023;27;20524;-37
2023/01/27 11:10:12;;;;;;;19.87;13.63;;;3.70;1.00;;;;;;5109157;28;20756;-37
2023/01/27 11:12:42;;;;;;;19.73;14.00;;;3.70;1.00;;;;;;5104060;28;20781;-37
2023/01/27 11:15:22;;;;;;;19.90;14.47;;;3.80;99.90;;;;;;5108963;28;20421;-37
2023/01/27 11:17:51;;;;;;;21.27;14.77;;;3.90;99.90;;;;;;5113921;28;20812;-36
2023/01/27 11:20:39;;;;;;;9.30;6.20;;;3.80;99.90;;;;;;5112412;28;20429;-35
2023/01/27 11:23:18;;;;;;;19.00;9.80;;;5.50;1.00;;;;;;5110602;28;20918;-37
2023/01/27 11:25:55;;;;;;;13.70;9.10;;;7.30;1.00;;;;;;5113084;28;20421;-37
2023/01/27 11:28:54;;;;;;;23.33;15.20;;;8.00;1.00;;;;;;5111906;28;20516;-36
2023/01/27 11:31:47;;;;;;;22.20;14.27;;;7.90;1.00;;;;;;5109053;28;20500;-37
2023/01/27 11:34:29;;;;;;;22.50;15.47;;;7.50;1.00;;;;;;5110639;28;20422;-36
2023/01/27 11:36:54;;;;;;;19.67;14.40;;;6.90;99.90;;;;;;5111951;28;20472;-36
2023/01/27 11:39:20;;;;;;;20.27;15.03;;;6.50;99.90;;;;;;5112488;28;20417;-37
2023/01/27 11:41:52;;;;;;;23.40;16.53;;;6.10;99.90;;;;;;5112691;28;20442;-36
2023/01/27 11:44:30;;;;;;;22.90;16.23;;;5.80;3.00;;;;;;5111623;28;20172;-37
2023/01/27 11:46:55;;;;;;;19.53;14.63;;;5.50;1.00;;;;;;5111667;28;20417;-36
2023/01/27 11:49:33;;;;;;;21.80;15.57;;;5.30;99.90;;;;;;5110709;28;20467;-37
2023/01/27 11:52:11;;;;;;;20.00;13.47;;;5.10;99.90;;;;;;5110770;28;20167;-37
2023/01/27 11:54:45;;;;;;;19.83;14.47;;;4.90;1.00;;;;;;5107494;28;20795;-37
2023/01/27 11:57:18;;;;;;;18.70;13.07;;;4.80;99.90;;;;;;5108984;28;20776;-36
2023/01/27 11:59:44;;;;;;;17.50;12.80;;;4.70;95.40;;;;;;5111350;28;20417;-37
2023/01/27 12:02:15;;;;;;;17.80;13.40;;;4.70;1.00;;;;;;5112977;28;20449;-37
2023/01/27 12:05:05;;;;;;;17.37;12.90;;;4.60;99.90;;;;;;5116807;28;20429;-36
2023/01/27 12:07:51;;;;;;;18.87;13.50;;;4.50;99.90;;;;;;5099704;28;20430;-37
2023/01/27 12:10:25;;;;;;;18.97;12.97;;;4.50;36.50;;;;;;5094264;28;20430;-37
2023/01/27 12:12:52;;;;;;;18.67;13.20;;;4.40;1.00;;;;;;5094679;28;20457;-36
2023/01/27 12:15:18;;;;;;;18.40;13.03;;;4.40;1.00;;;;;;5094105;28;20784;-37
2023/01/27 12:17:50;;;;;;;19.97;13.67;;;4.40;1.00;;;;;;5094146;28;20415;-37
2023/01/27 12:20:47;;;;;;;19.30;13.17;;;4.40;1.00;;;;;;5090874;28;21014;-36
2023/01/27 12:23:15;;;;;;;22.10;14.40;;;4.40;1.00;;;;;;5091040;28;20474;-37
2023/01/27 12:26:04;;;;;;;17.93;13.00;;;4.40;1.00;;;;;;5089743;28;20441;-36
2023/01/27 12:28:41;;;;;;;14.87;11.80;;;4.40;99.90;;;;;;5090961;28;20425;-37
2023/01/27 12:31:42;;;;;;;16.90;13.03;;;4.40;99.90;;;;;;5091310;28;20431;-36
2023/01/27 12:34:25;;;;;;;16.97;11.97;;;4.40;99.90;;;;;;5090367;28;20506;-37
2023/01/27 12:36:51;;;;;;;15.17;11.57;;;4.40;99.90;;;;;;5093429;28;20782;-38
2023/01/27 12:39:38;;;;;;;15.50;11.00;;;4.30;99.90;;;;;;5094014;28;20448;-37
2023/01/27 12:42:04;;;;;;;15.83;12.27;;;4.30;99.90;;;;;;5092416;28;20414;-37
2023/01/27 12:44:41;;;;;;;16.53;12.47;;;4.20;99.90;;;;;;5093333;28;20422;-36
2023/01/27 12:47:33;;;;;;;16.40;11.43;;;4.30;99.90;;;;;;5093909;28;20191;-36
2023/01/27 12:50:22;;;;;;;19.77;13.40;;;4.20;99.90;;;;;;5088769;28;20426;-37
2023/01/27 12:53:05;;;;;;;17.57;12.63;;;4.20;99.90;;;;;;5085516;28;20470;-37
2023/01/27 12:55:43;;;;;;;15.93;12.80;;;4.20;99.90;;;;;;5088151;28;20414;-37
2023/01/27 12:58:27;;;;;;;15.27;11.63;;;4.20;99.90;;;;;;5088468;28;20433;-36
2023/01/27 13:00:53;;;;;;;14.70;11.00;;;4.20;99.90;;;;;;5088251;28;20497;-37
2023/01/27 13:03:20;;;;;;;16.53;12.10;;;4.20;99.90;;;;;;5089518;28;20418;-36
2023/01/27 13:05:45;;;;;;;15.83;11.00;;;4.20;99.90;;;;;;5090241;28;20816;-38
2023/01/27 13:08:16;;;;;;;16.73;11.70;;;4.20;99.90;;;;;;5089258;28;20445;-37
2023/01/27 13:10:49;;;;;;;16.20;12.13;;;4.20;99.90;;;;;;5089878;28;20233;-39
2023/01/27 13:13:20;;;;;;;18.33;13.23;;;4.20;99.90;;;;;;5089939;28;20487;-37
2023/01/27 13:16:00;;;;;;;18.87;12.97;;;4.30;99.90;;;;;;5090774;28;20414;-36
2023/01/27 13:18:32;;;;;;;18.43;12.57;;;4.30;99.90;;;;;;5089077;28;20848;-37
2023/01/27 13:21:12;;;;;;;15.80;11.67;;;4.30;99.90;;;;;;5092509;28;20438;-37
2023/01/27 13:23:39;;;;;;;15.20;11.30;;;4.40;99.90;;;;;;5093313;28;20500;-36
2023/01/27 13:26:07;;;;;;;15.23;11.47;;;4.30;99.90;;;;;;5095982;28;20418;-36